createdAt,value
2023-03-17T00:00:48.593Z,94.20
2023-03-17T00:03:23.564Z,94.20
2023-03-17T00:05:53.420Z,94.20
2023-03-17T00:08:28.989Z,94.10
2023-03-17T00:10:56.284Z,94.10
2023-03-17T00:13:24.029Z,94.00
2023-03-17T00:16:07.618Z,93.90
2023-03-17T00:18:35.548Z,93.90
2023-03-17T00:21:02.690Z,93.90
2023-03-17T00:23:30.038Z,94.00
2023-03-17T00:25:57.444Z,94.00
2023-03-17T00:28:27.404Z,93.90
2023-03-17T00:31:07.040Z,94.00
2023-03-17T00:33:37.216Z,93.90
2023-03-17T00:36:05.029Z,93.90
2023-03-17T00:38:32.351Z,93.80
2023-03-17T00:40:59.550Z,93.90
2023-03-17T00:43:29.325Z,93.90
2023-03-17T00:45:57.700Z,93.90
2023-03-17T00:48:25.042Z,93.80
2023-03-17T00:50:52.216Z,93.80
2023-03-17T00:53:23.867Z,93.80
2023-03-17T00:55:51.110Z,93.80
2023-03-17T00:58:27.454Z,93.70
2023-03-17T01:00:55.839Z,93.80
2023-03-17T01:03:24.827Z,93.70
2023-03-17T01:05:54.667Z,93.60
2023-03-17T01:08:23.731Z,93.50
2023-03-17T01:10:50.955Z,93.50
2023-03-17T01:13:19.857Z,93.60
2023-03-17T01:15:50.455Z,93.70
2023-03-17T01:18:21.743Z,93.70
2023-03-17T01:20:49.927Z,93.70
2023-03-17T01:23:17.893Z,93.50
2023-03-17T01:25:45.515Z,93.50
2023-03-17T01:28:16.986Z,93.40
2023-03-17T01:30:45.278Z,93.60
2023-03-17T01:33:14.739Z,93.50
2023-03-17T01:35:43.966Z,93.70
2023-03-17T01:38:11.977Z,93.90
2023-03-17T01:40:49.837Z,94.10
2023-03-17T01:43:25.505Z,93.90
2023-03-17T01:46:25.218Z,93.80
2023-03-17T01:49:05.671Z,93.80
2023-03-17T01:52:03.460Z,93.70
2023-03-17T01:54:30.580Z,93.90
2023-03-17T01:57:04.637Z,94.30
2023-03-17T01:59:37.897Z,94.50
2023-03-17T02:02:10.920Z,94.60
2023-03-17T02:04:40.237Z,94.70
2023-03-17T02:07:08.141Z,94.50
2023-03-17T02:09:38.001Z,94.60
2023-03-17T02:12:07.046Z,94.70
2023-03-17T02:14:34.268Z,94.70
2023-03-17T02:17:02.825Z,94.90
2023-03-17T02:19:30.928Z,95.00
2023-03-17T02:21:59.888Z,95.20
2023-03-17T02:24:37.844Z,95.40
2023-03-17T02:27:18.661Z,95.60
2023-03-17T02:29:46.984Z,95.70
2023-03-17T02:32:20.718Z,95.70
2023-03-17T02:34:49.550Z,95.40
2023-03-17T02:37:18.252Z,95.30
2023-03-17T02:39:46.579Z,95.10
2023-03-17T02:42:14.642Z,94.80
2023-03-17T02:44:41.818Z,95.00
2023-03-17T02:47:08.998Z,95.30
2023-03-17T02:49:38.839Z,95.50
2023-03-17T02:52:07.405Z,95.60
2023-03-17T02:54:35.000Z,95.70
2023-03-17T02:57:02.112Z,95.90
2023-03-17T02:59:29.233Z,96.00
2023-03-17T03:01:56.866Z,96.10
2023-03-17T03:04:24.511Z,96.20
2023-03-17T03:06:52.383Z,96.30
2023-03-17T03:09:21.022Z,96.40
2023-03-17T03:11:48.406Z,96.50
2023-03-17T03:14:16.107Z,96.60
2023-03-17T03:16:43.654Z,96.70
2023-03-17T03:19:10.776Z,96.80
2023-03-17T03:21:37.913Z,96.80
2023-03-17T03:24:06.632Z,97.10
2023-03-17T03:26:33.795Z,96.90
2023-03-17T03:29:01.436Z,97.10
2023-03-17T03:31:28.597Z,97.20
2023-03-17T03:33:55.750Z,96.90
2023-03-17T03:36:23.419Z,96.80
2023-03-17T03:38:50.553Z,96.70
2023-03-17T03:41:17.723Z,96.80
2023-03-17T03:43:45.263Z,96.80
2023-03-17T03:46:12.352Z,96.90
2023-03-17T03:48:39.460Z,97.10
2023-03-17T03:51:06.895Z,97.10
2023-03-17T03:53:34.080Z,97.00
2023-03-17T03:56:01.925Z,96.60
2023-03-17T03:58:29.268Z,96.70
2023-03-17T04:00:57.017Z,97.20
2023-03-17T04:03:24.196Z,97.20
2023-03-17T04:05:51.302Z,97.40
2023-03-17T04:08:18.416Z,97.40
2023-03-17T04:10:45.625Z,97.50
2023-03-17T04:13:14.069Z,97.50
2023-03-17T04:15:41.600Z,97.50
2023-03-17T04:18:09.762Z,97.50
2023-03-17T04:20:36.963Z,97.50
2023-03-17T04:23:04.252Z,97.40
2023-03-17T04:25:31.600Z,97.40
2023-03-17T04:27:58.656Z,97.60
2023-03-17T04:30:26.468Z,97.70
2023-03-17T04:32:53.957Z,97.80
2023-03-17T04:35:25.143Z,97.70
2023-03-17T04:37:52.214Z,97.70
2023-03-17T04:40:20.273Z,97.80
2023-03-17T04:42:47.451Z,97.80
2023-03-17T04:45:15.666Z,97.80
2023-03-17T04:47:43.399Z,97.90
2023-03-17T04:50:11.307Z,98.00
2023-03-17T04:52:38.862Z,97.80
2023-03-17T04:55:08.378Z,97.80
2023-03-17T04:57:36.945Z,97.60
2023-03-17T05:00:09.654Z,97.20
2023-03-17T05:02:39.058Z,97.10
2023-03-17T05:05:06.365Z,97.10
2023-03-17T05:07:34.209Z,97.30
2023-03-17T05:10:02.232Z,97.20
2023-03-17T05:12:29.373Z,97.40
2023-03-17T05:14:56.642Z,97.60
2023-03-17T05:17:23.767Z,97.60
2023-03-17T05:19:51.076Z,97.50
2023-03-17T05:22:18.151Z,97.50
2023-03-17T05:24:45.438Z,97.40
2023-03-17T05:27:12.546Z,97.50
2023-03-17T05:29:39.773Z,97.50
2023-03-17T05:32:07.632Z,97.40
2023-03-17T05:34:34.720Z,97.50
2023-03-17T05:37:01.861Z,97.40
2023-03-17T05:39:28.960Z,97.40
2023-03-17T05:41:57.171Z,97.50
2023-03-17T05:44:24.855Z,97.40
2023-03-17T05:46:51.911Z,97.40
2023-03-17T05:49:20.419Z,97.60
2023-03-17T05:51:47.630Z,97.60
2023-03-17T05:54:14.694Z,97.70
2023-03-17T05:56:42.821Z,98.00
2023-03-17T05:59:10.724Z,97.10
2023-03-17T06:01:37.850Z,97.10
2023-03-17T06:04:05.034Z,97.10
2023-03-17T06:06:32.409Z,97.10
2023-03-17T06:08:59.829Z,97.00
2023-03-17T06:11:27.295Z,96.90
2023-03-17T06:13:54.690Z,96.50
2023-03-17T06:16:22.387Z,96.60
2023-03-17T06:18:49.804Z,96.90
2023-03-17T06:21:17.049Z,97.30
2023-03-17T06:23:44.125Z,97.40
2023-03-17T06:26:11.266Z,97.60
2023-03-17T06:28:38.400Z,97.70
2023-03-17T06:31:07.314Z,97.80
2023-03-17T06:33:35.496Z,97.70
2023-03-17T06:36:03.416Z,97.60
2023-03-17T06:38:30.595Z,97.70
2023-03-17T06:40:58.134Z,97.80
2023-03-17T06:43:25.362Z,97.90
2023-03-17T06:45:52.806Z,97.90
2023-03-17T06:48:20.024Z,97.90
2023-03-17T06:50:50.298Z,97.90
2023-03-17T06:53:17.459Z,97.80
2023-03-17T06:55:45.144Z,97.90
2023-03-17T06:58:13.236Z,98.20
2023-03-17T07:00:40.404Z,98.20
2023-03-17T07:03:07.693Z,98.10
2023-03-17T07:05:34.823Z,98.00
2023-03-17T07:08:01.911Z,98.00
2023-03-17T07:10:29.117Z,98.20
2023-03-17T07:12:56.435Z,98.20
2023-03-17T07:15:24.084Z,98.20
2023-03-17T07:17:51.891Z,98.10
2023-03-17T07:20:19.953Z,98.20
2023-03-17T07:22:47.090Z,98.00
2023-03-17T07:25:14.458Z,98.00
2023-03-17T07:27:42.199Z,97.90
2023-03-17T07:30:15.089Z,97.50
2023-03-17T07:32:42.326Z,97.60
2023-03-17T07:35:09.573Z,97.70
2023-03-17T07:37:36.853Z,97.70
2023-03-17T07:40:05.272Z,97.70
2023-03-17T07:42:32.442Z,97.60
2023-03-17T07:44:59.513Z,97.40
2023-03-17T07:47:27.258Z,97.20
2023-03-17T07:49:54.884Z,97.20
2023-03-17T07:52:21.960Z,97.00
2023-03-17T07:54:49.084Z,96.90
2023-03-17T07:57:16.879Z,96.30
2023-03-17T07:59:44.520Z,96.50
2023-03-17T08:02:16.440Z,96.30
2023-03-17T08:04:45.016Z,96.30
2023-03-17T08:07:13.009Z,96.20
2023-03-17T08:09:40.169Z,96.00
2023-03-17T08:12:09.414Z,96.00
2023-03-17T08:14:36.611Z,96.20
2023-03-17T08:17:04.915Z,96.00
2023-03-17T08:19:32.316Z,96.30
2023-03-17T08:21:59.506Z,96.00
2023-03-17T08:24:27.131Z,95.70
2023-03-17T08:26:54.446Z,95.20
2023-03-17T08:29:21.557Z,95.30
2023-03-17T08:31:48.709Z,95.30
2023-03-17T08:34:16.606Z,95.60
2023-03-17T08:36:44.688Z,95.50
2023-03-17T08:39:12.391Z,95.00
2023-03-17T08:41:39.619Z,95.00
2023-03-17T08:44:08.825Z,95.00
2023-03-17T08:46:36.287Z,95.30
2023-03-17T08:49:04.074Z,95.10
2023-03-17T08:51:36.025Z,94.30
2023-03-17T08:54:05.848Z,94.20
2023-03-17T08:56:33.723Z,93.70
2023-03-17T08:59:00.817Z,93.80
2023-03-17T09:01:28.324Z,93.90
2023-03-17T09:03:56.204Z,93.50
2023-03-17T09:06:24.460Z,93.30
2023-03-17T09:08:55.597Z,93.20
2023-03-17T09:11:32.837Z,93.30
2023-03-17T09:14:00.309Z,93.40
2023-03-17T09:16:28.767Z,93.10
2023-03-17T09:18:56.127Z,92.60
2023-03-17T09:21:23.740Z,92.70
2023-03-17T09:23:50.916Z,92.30
2023-03-17T09:26:19.379Z,92.60
2023-03-17T09:28:46.525Z,93.20
2023-03-17T09:31:13.861Z,93.20
2023-03-17T09:33:41.999Z,93.20
2023-03-17T09:36:10.906Z,92.90
2023-03-17T09:38:39.148Z,91.70
2023-03-17T09:41:33.592Z,91.70
2023-03-17T09:44:32.602Z,91.60
2023-03-17T09:47:42.709Z,91.80
2023-03-17T09:50:17.740Z,91.60
2023-03-17T09:52:46.317Z,91.40
2023-03-17T09:55:27.109Z,91.20
2023-03-17T09:57:57.115Z,91.00
2023-03-17T10:00:29.205Z,91.30
2023-03-17T10:02:58.864Z,91.60
2023-03-17T10:05:31.195Z,92.00
2023-03-17T10:08:26.915Z,91.10
2023-03-17T10:11:42.378Z,91.30
2023-03-17T10:14:49.490Z,90.60
2023-03-17T10:17:34.976Z,90.20
2023-03-17T10:20:09.205Z,90.30
2023-03-17T10:22:52.938Z,88.30
2023-03-17T10:25:33.932Z,87.60
2023-03-17T10:28:26.170Z,88.30
2023-03-17T10:30:54.507Z,88.40
2023-03-17T10:33:22.420Z,89.20
2023-03-17T10:35:49.553Z,88.30
2023-03-17T10:38:22.707Z,89.20
2023-03-17T10:41:14.091Z,90.00
2023-03-17T10:43:50.783Z,88.60
2023-03-17T10:46:25.807Z,87.50
2023-03-17T10:49:19.959Z,86.70
2023-03-17T10:51:47.318Z,85.40
2023-03-17T10:54:20.209Z,86.50
2023-03-17T10:56:57.361Z,85.20
2023-03-17T10:59:33.128Z,86.10
2023-03-17T11:02:14.547Z,83.40
2023-03-17T11:04:43.517Z,81.40
2023-03-17T11:07:27.142Z,80.00
2023-03-17T11:10:05.437Z,81.70
2023-03-17T11:12:40.602Z,81.30
2023-03-17T11:15:17.835Z,82.90
2023-03-17T11:17:54.749Z,80.60
2023-03-17T11:20:50.458Z,79.40
2023-03-17T11:23:52.903Z,79.10
2023-03-17T11:26:51.047Z,79.60
2023-03-17T11:30:13.562Z,77.70
2023-03-17T11:33:19.365Z,78.40
2023-03-17T11:36:25.751Z,76.80
2023-03-17T11:39:05.830Z,76.50
2023-03-17T11:41:56.243Z,75.50
2023-03-17T11:44:41.934Z,74.70
2023-03-17T11:47:36.398Z,76.60
2023-03-17T11:50:18.413Z,76.00
2023-03-17T11:53:04.352Z,75.90
2023-03-17T11:55:50.569Z,76.60
2023-03-17T11:58:35.626Z,74.50
2023-03-17T12:01:09.845Z,76.30
2023-03-17T12:03:49.791Z,77.90
2023-03-17T12:06:32.772Z,79.50
2023-03-17T12:09:22.242Z,80.00
2023-03-17T12:11:51.555Z,80.50
2023-03-17T12:14:42.351Z,77.70
2023-03-17T12:17:12.753Z,80.30
2023-03-17T12:20:21.547Z,73.40
2023-03-17T12:23:21.618Z,76.00
2023-03-17T12:26:14.285Z,77.60
2023-03-17T12:29:12.399Z,76.40
2023-03-17T12:31:48.920Z,76.40
2023-03-17T12:34:32.983Z,76.70
2023-03-17T12:37:00.239Z,76.80
2023-03-17T12:39:34.208Z,72.40
2023-03-17T12:42:40.026Z,74.10
2023-03-17T12:45:32.672Z,73.30
2023-03-17T12:48:40.746Z,73.50
2023-03-17T12:51:52.075Z,75.50
2023-03-17T12:54:27.144Z,72.00
2023-03-17T12:57:28.810Z,68.80
2023-03-17T13:00:19.270Z,68.60
2023-03-17T13:03:09.377Z,68.50
2023-03-17T13:05:37.497Z,68.10
2023-03-17T13:08:10.967Z,68.30
2023-03-17T13:10:50.541Z,71.60
2023-03-17T13:13:41.104Z,68.90
2023-03-17T13:16:41.186Z,68.70
2023-03-17T13:19:47.702Z,69.60
2023-03-17T13:22:34.145Z,68.40
2023-03-17T13:25:13.515Z,70.00
2023-03-17T13:27:50.015Z,66.50
2023-03-17T13:30:24.421Z,63.90
2023-03-17T13:33:09.794Z,66.30
2023-03-17T13:35:54.115Z,68.90
2023-03-17T13:38:33.044Z,65.00
2023-03-17T13:41:52.710Z,66.10
2023-03-17T13:44:41.386Z,63.10
2023-03-17T13:47:23.702Z,64.80
2023-03-17T13:49:57.175Z,68.90
2023-03-17T13:52:32.879Z,65.10
2023-03-17T13:55:32.053Z,69.00
2023-03-17T13:58:11.086Z,69.90
2023-03-17T14:00:51.569Z,70.80
2023-03-17T14:03:36.522Z,65.10
2023-03-17T14:06:08.089Z,66.60
2023-03-17T14:09:02.616Z,63.20
2023-03-17T14:11:37.839Z,64.70
2023-03-17T14:14:53.217Z,62.30
2023-03-17T14:17:31.439Z,66.10
2023-03-17T14:20:25.398Z,68.30
2023-03-17T14:23:04.254Z,61.60
2023-03-17T14:25:38.689Z,63.30
2023-03-17T14:28:12.628Z,63.10
2023-03-17T14:30:39.951Z,59.80
2023-03-17T14:33:23.081Z,58.90
2023-03-17T14:35:53.902Z,63.90
2023-03-17T14:38:29.976Z,66.00
2023-03-17T14:41:07.028Z,66.70
2023-03-17T14:43:36.568Z,65.70
2023-03-17T14:46:17.433Z,64.20
2023-03-17T14:48:49.751Z,64.40
2023-03-17T14:51:38.151Z,64.40
2023-03-17T14:54:32.895Z,60.70
2023-03-17T14:57:23.783Z,60.00
2023-03-17T15:00:14.987Z,61.90
2023-03-17T15:02:44.291Z,61.30
2023-03-17T15:05:29.261Z,64.20
2023-03-17T15:07:57.239Z,63.70
2023-03-17T15:10:34.394Z,64.20
2023-03-17T15:13:06.360Z,66.70
2023-03-17T15:15:38.274Z,67.00
2023-03-17T15:18:14.437Z,67.30
2023-03-17T15:20:45.900Z,67.60
2023-03-17T15:23:25.078Z,65.60
2023-03-17T15:25:57.555Z,67.40
2023-03-17T15:28:32.191Z,67.20
2023-03-17T15:31:13.799Z,68.80
2023-03-17T15:33:42.194Z,68.60
2023-03-17T15:36:31.191Z,69.90
2023-03-17T15:39:00.658Z,68.90
2023-03-17T15:41:28.131Z,62.80
2023-03-17T15:43:55.429Z,64.60
2023-03-17T15:46:33.640Z,69.00
2023-03-17T15:49:01.221Z,65.30
2023-03-17T15:51:28.369Z,67.30
2023-03-17T15:53:55.699Z,68.80
2023-03-17T15:56:22.947Z,67.70
2023-03-17T15:58:52.483Z,67.70
2023-03-17T16:01:20.888Z,68.40
2023-03-17T16:03:49.069Z,70.10
2023-03-17T16:06:22.193Z,65.20
2023-03-17T16:08:50.736Z,71.20
2023-03-17T16:11:28.462Z,73.10
2023-03-17T16:14:00.147Z,72.70
2023-03-17T16:16:39.677Z,71.30
2023-03-17T16:19:17.043Z,72.40
2023-03-17T16:21:44.336Z,72.80
2023-03-17T16:24:23.159Z,73.50
2023-03-17T16:26:50.924Z,72.90
2023-03-17T16:29:20.499Z,73.00
2023-03-17T16:31:50.586Z,71.80
2023-03-17T16:34:23.760Z,71.40
2023-03-17T16:36:51.406Z,73.20
2023-03-17T16:39:23.020Z,73.80
2023-03-17T16:41:52.142Z,74.30
2023-03-17T16:44:21.662Z,74.30
2023-03-17T16:46:49.171Z,74.90
2023-03-17T16:49:19.563Z,75.50
2023-03-17T16:51:48.709Z,76.40
2023-03-17T16:54:16.503Z,77.10
2023-03-17T16:56:43.761Z,78.10
2023-03-17T16:59:21.269Z,77.90
2023-03-17T17:01:48.468Z,78.10
2023-03-17T17:04:15.620Z,78.60
2023-03-17T17:06:42.714Z,79.30
2023-03-17T17:09:09.828Z,80.10
2023-03-17T17:11:36.916Z,80.70
2023-03-17T17:14:04.090Z,80.20
2023-03-17T17:16:39.820Z,80.90
2023-03-17T17:19:17.144Z,82.70
2023-03-17T17:21:45.387Z,79.60
2023-03-17T17:24:14.157Z,79.60
2023-03-17T17:26:41.669Z,78.20
2023-03-17T17:29:08.964Z,77.40
2023-03-17T17:31:36.137Z,77.40
2023-03-17T17:34:03.398Z,77.80
2023-03-17T17:36:31.123Z,77.70
2023-03-17T17:38:58.276Z,74.70
2023-03-17T17:41:25.412Z,78.00
2023-03-17T17:43:53.757Z,77.10
2023-03-17T17:46:23.153Z,76.20
2023-03-17T17:48:50.635Z,75.90
2023-03-17T17:51:17.820Z,73.80
2023-03-17T17:53:45.217Z,73.80
2023-03-17T17:56:17.782Z,74.80
2023-03-17T17:58:45.721Z,74.60
2023-03-17T18:01:14.281Z,75.80
2023-03-17T18:03:42.904Z,76.10
2023-03-17T18:06:10.717Z,77.10
2023-03-17T18:08:37.810Z,77.30
2023-03-17T18:11:05.682Z,78.40
2023-03-17T18:13:34.460Z,77.20
2023-03-17T18:16:01.983Z,77.50
2023-03-17T18:18:29.278Z,78.40
2023-03-17T18:20:56.420Z,78.80
2023-03-17T18:23:23.594Z,79.80
2023-03-17T18:25:50.734Z,80.40
2023-03-17T18:28:18.037Z,80.80
2023-03-17T18:30:45.443Z,80.90
2023-03-17T18:33:19.989Z,81.20
2023-03-17T18:35:51.078Z,81.50
2023-03-17T18:38:18.510Z,81.90
2023-03-17T18:40:45.968Z,82.20
2023-03-17T18:43:13.129Z,82.50
2023-03-17T18:45:40.492Z,82.40
2023-03-17T18:48:07.721Z,82.50
2023-03-17T18:50:34.891Z,83.00
2023-03-17T18:53:02.431Z,83.40
2023-03-17T18:55:29.625Z,83.80
2023-03-17T18:57:56.799Z,84.20
2023-03-17T19:00:26.031Z,84.50
2023-03-17T19:02:53.720Z,84.70
2023-03-17T19:05:21.119Z,84.90
2023-03-17T19:07:48.989Z,85.20
2023-03-17T19:10:16.717Z,85.50
2023-03-17T19:12:46.259Z,85.80
2023-03-17T19:15:14.686Z,86.00
2023-03-17T19:17:42.389Z,86.30
2023-03-17T19:20:10.871Z,86.30
2023-03-17T19:22:38.248Z,86.40
2023-03-17T19:25:06.301Z,86.70
2023-03-17T19:27:33.389Z,86.60
2023-03-17T19:30:00.674Z,87.50
2023-03-17T19:32:27.893Z,87.20
2023-03-17T19:34:54.997Z,87.40
2023-03-17T19:37:22.649Z,87.80
2023-03-17T19:39:49.751Z,88.00
2023-03-17T19:42:17.512Z,88.10
2023-03-17T19:44:44.848Z,88.40
2023-03-17T19:47:12.008Z,88.60
2023-03-17T19:49:39.086Z,88.80
2023-03-17T19:52:07.753Z,89.00
2023-03-17T19:54:37.914Z,89.20
2023-03-17T19:57:05.917Z,89.30
2023-03-17T19:59:33.000Z,89.20
2023-03-17T20:02:00.231Z,89.20
2023-03-17T20:04:27.363Z,89.10
2023-03-17T20:06:55.808Z,89.60
2023-03-17T20:09:27.269Z,90.00
2023-03-17T20:11:56.209Z,90.00
2023-03-17T20:14:24.260Z,90.20
2023-03-17T20:16:51.994Z,90.40
2023-03-17T20:19:19.209Z,90.40
2023-03-17T20:21:46.621Z,90.50
2023-03-17T20:24:14.849Z,90.50
2023-03-17T20:26:44.708Z,90.60
2023-03-17T20:29:16.206Z,91.10
2023-03-17T20:31:43.928Z,91.20
2023-03-17T20:34:11.841Z,91.30
2023-03-17T20:36:42.435Z,91.30
2023-03-17T20:39:14.908Z,91.40
2023-03-17T20:41:42.319Z,91.50
2023-03-17T20:44:09.473Z,91.50
2023-03-17T20:46:36.820Z,91.70
2023-03-17T20:49:05.684Z,91.80
2023-03-17T20:51:33.951Z,91.90
2023-03-17T20:54:01.767Z,92.00
2023-03-17T20:56:30.757Z,92.00
2023-03-17T20:58:58.696Z,92.10
2023-03-17T21:01:26.725Z,92.00
2023-03-17T21:03:54.043Z,92.10
2023-03-17T21:06:21.277Z,92.20
2023-03-17T21:08:49.035Z,92.30
2023-03-17T21:11:20.322Z,92.30
2023-03-17T21:13:47.687Z,92.30
2023-03-17T21:16:26.676Z,92.50
2023-03-17T21:18:54.434Z,92.60
2023-03-17T21:21:22.546Z,92.70
2023-03-17T21:23:50.233Z,92.70
2023-03-17T21:26:18.466Z,92.80
2023-03-17T21:28:46.539Z,92.80
2023-03-17T21:31:15.962Z,92.80
2023-03-17T21:33:43.964Z,92.90
2023-03-17T21:36:11.271Z,92.90
2023-03-17T21:38:38.946Z,93.00
2023-03-17T21:41:30.442Z,92.90
2023-03-17T21:43:58.078Z,92.90
2023-03-17T21:46:25.883Z,93.30
2023-03-17T21:48:57.048Z,93.40
2023-03-17T21:51:25.049Z,93.40
2023-03-17T21:53:53.050Z,93.50
2023-03-17T21:56:20.884Z,93.40
2023-03-17T21:58:49.084Z,93.50
2023-03-17T22:01:18.335Z,93.30
2023-03-17T22:03:45.621Z,93.20
2023-03-17T22:06:14.132Z,93.20
2023-03-17T22:08:41.671Z,93.20
2023-03-17T22:11:12.171Z,93.20
2023-03-17T22:13:40.699Z,93.20
2023-03-17T22:16:10.047Z,93.10
2023-03-17T22:18:37.637Z,93.10
2023-03-17T22:21:06.795Z,93.00
2023-03-17T22:23:39.648Z,93.30
2023-03-17T22:26:09.941Z,93.50
2023-03-17T22:28:37.903Z,93.60
2023-03-17T22:31:12.095Z,93.70
2023-03-17T22:33:39.983Z,93.60
2023-03-17T22:36:07.500Z,93.60
2023-03-17T22:38:34.812Z,93.70
2023-03-17T22:41:09.618Z,93.80
2023-03-17T22:43:37.881Z,93.70
2023-03-17T22:46:05.834Z,93.70
2023-03-17T22:48:35.943Z,93.90
2023-03-17T22:51:14.397Z,94.10
2023-03-17T22:53:41.583Z,94.20
2023-03-17T22:56:11.067Z,94.40
2023-03-17T22:58:39.049Z,94.90
2023-03-17T23:01:07.936Z,94.80
2023-03-17T23:03:36.276Z,95.00
2023-03-17T23:06:06.301Z,95.10
2023-03-17T23:08:36.708Z,95.20
2023-03-17T23:11:10.574Z,95.20
2023-03-17T23:13:39.834Z,95.20
2023-03-17T23:16:08.771Z,95.30
2023-03-17T23:18:35.901Z,95.40
2023-03-17T23:21:05.304Z,95.60
2023-03-17T23:23:34.122Z,95.80
2023-03-17T23:26:01.213Z,95.90
2023-03-17T23:28:28.449Z,95.90
2023-03-17T23:30:55.691Z,95.80
2023-03-17T23:33:24.133Z,96.00
2023-03-17T23:35:52.475Z,96.10
2023-03-17T23:38:21.364Z,96.20
2023-03-17T23:40:50.151Z,96.20
2023-03-17T23:43:17.772Z,96.30
2023-03-17T23:45:45.485Z,96.40
2023-03-17T23:48:12.803Z,96.50
2023-03-17T23:50:41.363Z,96.60
2023-03-17T23:53:09.622Z,96.60
2023-03-17T23:55:36.891Z,96.50
2023-03-17T23:58:04.999Z,96.40
